Time;durP1;ratioP1;P1;durP2;ratioP2;P2;SDS_P1;SDS_P2;PMS_P1;PMS_P2;Temp;Humidity;BMP_temperature;BMP_pressure;BME280_temperature;BME280_humidity;BME280_pressure;Samples;Min_cycle;Max_cycle;Signal;HPM_P1;HPM_P2
2023/05/02 00:00:27;;;;;;;31.48;15.95;;;11.50;99.90;;;;;;5052432;28;20178;-69
2023/05/02 00:02:53;;;;;;;34.63;15.23;;;11.60;99.90;;;;;;5053429;28;20193;-69
2023/05/02 00:05:19;;;;;;;29.40;16.45;;;11.50;99.90;;;;;;5053036;28;20186;-68
2023/05/02 00:07:45;;;;;;;33.70;17.13;;;11.50;99.90;;;;;;5053286;28;20638;-69
2023/05/02 00:10:11;;;;;;;30.48;16.58;;;11.60;99.90;;;;;;5085334;28;20189;-69
2023/05/02 00:12:37;;;;;;;42.80;17.92;;;11.60;99.90;;;;;;5041775;28;20187;-69
2023/05/02 00:15:03;;;;;;;34.75;16.23;;;11.70;99.90;;;;;;5048160;28;20185;-69
2023/05/02 00:17:29;;;;;;;39.42;19.10;;;11.70;99.90;;;;;;5051117;28;20198;-69
2023/05/02 00:19:55;;;;;;;39.15;17.17;;;11.90;99.90;;;;;;5045447;28;20230;-68
2023/05/02 00:22:21;;;;;;;39.92;19.08;;;11.90;99.90;;;;;;5048775;28;20585;-69
2023/05/02 00:24:46;;;;;;;43.20;21.17;;;12.00;99.90;;;;;;5047901;28;20266;-68
2023/05/02 00:27:13;;;;;;;44.65;19.88;;;12.20;99.90;;;;;;5047737;28;20198;-68
2023/05/02 00:29:39;;;;;;;47.47;21.20;;;12.20;99.90;;;;;;5051965;28;20526;-69
2023/05/02 00:32:05;;;;;;;42.88;21.52;;;12.30;99.90;;;;;;5044028;28;20192;-69
2023/05/02 00:34:31;;;;;;;42.35;20.10;;;12.40;99.90;;;;;;5046116;28;20214;-69
2023/05/02 00:36:57;;;;;;;44.47;21.90;;;12.50;99.90;;;;;;5050183;28;20190;-69
2023/05/02 00:39:23;;;;;;;48.17;21.58;;;12.70;99.90;;;;;;5052302;28;21177;-69
2023/05/02 00:41:49;;;;;;;46.15;22.40;;;12.60;99.90;;;;;;5052586;28;20197;-68
2023/05/02 00:44:15;;;;;;;49.42;23.70;;;12.60;99.90;;;;;;5048190;28;20174;-69
2023/05/02 00:46:41;;;;;;;50.42;22.00;;;12.70;99.90;;;;;;5051957;28;20653;-69
2023/05/02 00:49:07;;;;;;;44.38;22.42;;;12.70;99.90;;;;;;5042573;28;20260;-69
2023/05/02 00:51:33;;;;;;;48.30;22.70;;;12.70;99.90;;;;;;5052612;28;20174;-69
2023/05/02 00:54:00;;;;;;;45.50;20.50;;;12.60;99.90;;;;;;5052286;28;20205;-69
2023/05/02 00:56:26;;;;;;;44.80;22.60;;;12.60;99.90;;;;;;5049457;28;20185;-69
2023/05/02 00:58:53;;;;;;;50.60;21.40;;;12.60;99.90;;;;;;5044385;28;20531;-69
2023/05/02 01:01:40;;;;;;;50.67;22.20;;;12.60;99.90;;;;;;5050181;28;20662;-69
2023/05/02 01:04:24;;;;;;;49.15;21.40;;;12.40;99.90;;;;;;5039188;28;20377;-69
2023/05/02 01:07:15;;;;;;;46.95;21.25;;;12.40;99.90;;;;;;5041436;28;20174;-69
2023/05/02 01:09:56;;;;;;;43.55;20.75;;;12.40;99.90;;;;;;5052131;28;20173;-69
2023/05/02 01:12:30;;;;;;;44.17;20.83;;;12.50;99.90;;;;;;5049649;28;20208;-69
2023/05/02 01:14:58;;;;;;;56.40;22.75;;;12.40;99.90;;;;;;5045346;28;20190;-70
2023/05/02 01:17:31;;;;;;;46.47;20.85;;;12.40;99.90;;;;;;5043361;28;20213;-69
2023/05/02 01:20:01;;;;;;;42.58;22.02;;;12.40;99.90;;;;;;5038632;28;20244;-70
2023/05/02 01:22:31;;;;;;;46.40;21.77;;;12.40;99.90;;;;;;5051825;28;20219;-69
2023/05/02 01:25:12;;;;;;;51.42;22.00;;;12.40;99.90;;;;;;5049455;28;20186;-70
2023/05/02 01:28:08;;;;;;;53.10;23.73;;;12.30;99.90;;;;;;5050404;28;20174;-69
2023/05/02 01:30:37;;;;;;;50.70;26.17;;;12.40;99.90;;;;;;5033713;28;20167;-69
2023/05/02 01:33:05;;;;;;;51.28;24.55;;;12.40;99.90;;;;;;5045406;28;20296;-69
2023/05/02 01:35:34;;;;;;;56.47;24.80;;;12.40;99.90;;;;;;5051827;28;20178;-69
2023/05/02 01:38:01;;;;;;;47.53;20.55;;;12.40;99.90;;;;;;5051803;28;20596;-69
2023/05/02 01:40:28;;;;;;;57.25;25.83;;;12.40;99.90;;;;;;5041507;28;20630;-71
2023/05/02 01:42:56;;;;;;;56.85;24.48;;;12.30;99.90;;;;;;5075024;28;20527;-72
2023/05/02 01:45:23;;;;;;;55.97;21.92;;;12.50;99.90;;;;;;5051472;28;20182;-70
2023/05/02 01:47:50;;;;;;;52.17;21.55;;;12.50;99.90;;;;;;5047486;28;20182;-69
2023/05/02 01:50:21;;;;;;;47.10;22.35;;;12.40;99.90;;;;;;5044096;28;20182;-69
2023/05/02 01:52:50;;;;;;;45.85;20.80;;;12.30;99.90;;;;;;5047646;28;20174;-69
2023/05/02 01:55:17;;;;;;;53.33;23.65;;;12.30;99.90;;;;;;5041301;28;20236;-69
2023/05/02 01:57:45;;;;;;;52.20;23.70;;;12.20;99.90;;;;;;5050738;28;20189;-69
2023/05/02 02:00:12;;;;;;;55.88;21.02;;;12.30;99.90;;;;;;5050366;28;20182;-69
2023/05/02 02:02:40;;;;;;;51.45;23.40;;;12.20;99.90;;;;;;5041083;28;20178;-70
2023/05/02 02:05:08;;;;;;;49.80;23.75;;;12.10;99.90;;;;;;5039631;28;20183;-69
2023/05/02 02:07:34;;;;;;;57.75;26.30;;;12.10;99.90;;;;;;5049316;28;20183;-69
2023/05/02 02:10:00;;;;;;;61.80;25.90;;;12.00;99.90;;;;;;5053767;28;20264;-69
2023/05/02 02:12:29;;;;;;;59.80;27.02;;;12.00;99.90;;;;;;5050099;28;20280;-69
2023/05/02 02:15:02;;;;;;;58.03;25.77;;;12.10;99.90;;;;;;5055445;28;20213;-70
2023/05/02 02:17:54;;;;;;;58.20;25.23;;;12.10;99.90;;;;;;5045808;28;20628;-69
2023/05/02 02:20:21;;;;;;;56.42;22.73;;;12.10;99.90;;;;;;5050899;28;20523;-72
2023/05/02 02:22:47;;;;;;;50.88;21.75;;;11.90;99.90;;;;;;5049099;28;20236;-69
2023/05/02 02:25:18;;;;;;;50.58;21.77;;;11.70;99.90;;;;;;5055077;28;20734;-69
2023/05/02 02:27:47;;;;;;;54.90;24.08;;;11.70;99.90;;;;;;5045148;28;20195;-69
2023/05/02 02:30:13;;;;;;;47.75;22.15;;;11.70;99.90;;;;;;5082338;28;20182;-69
2023/05/02 02:32:38;;;;;;;48.22;22.17;;;11.60;99.90;;;;;;5047831;28;20193;-69
2023/05/02 02:35:05;;;;;;;46.50;21.65;;;11.60;99.90;;;;;;5041422;28;20189;-69
2023/05/02 02:37:56;;;;;;;46.95;21.45;;;11.60;99.90;;;;;;5047392;28;20182;-69
2023/05/02 02:40:33;;;;;;;46.67;19.60;;;11.60;99.90;;;;;;5045592;28;20202;-69
2023/05/02 02:43:04;;;;;;;47.97;20.65;;;11.50;99.90;;;;;;5054207;28;20247;-69
2023/05/02 02:45:41;;;;;;;47.55;19.48;;;11.50;99.90;;;;;;5042039;28;20274;-69
2023/05/02 02:48:16;;;;;;;51.15;21.15;;;11.50;99.90;;;;;;5054940;28;20181;-71
2023/05/02 02:50:50;;;;;;;45.00;20.60;;;11.50;99.90;;;;;;5045780;28;20181;-70
2023/05/02 02:53:26;;;;;;;37.45;17.77;;;11.50;99.90;;;;;;5054685;28;20301;-69
2023/05/02 02:55:57;;;;;;;42.65;20.40;;;11.70;99.90;;;;;;5057802;28;20181;-70
2023/05/02 02:58:38;;;;;;;43.53;19.50;;;11.70;99.90;;;;;;5044735;28;20170;-69
2023/05/02 03:01:07;;;;;;;45.00;20.33;;;11.80;99.90;;;;;;5045854;28;20178;-69
2023/05/02 03:03:33;;;;;;;47.35;20.15;;;11.90;99.90;;;;;;5052122;28;20239;-69
2023/05/02 03:06:00;;;;;;;57.35;24.15;;;11.80;99.90;;;;;;5054075;28;20537;-69
2023/05/02 03:08:25;;;;;;;57.33;27.88;;;11.80;99.90;;;;;;5048672;28;20254;-69
2023/05/02 03:10:51;;;;;;;63.80;31.65;;;11.80;99.90;;;;;;5040157;28;20358;-72
2023/05/02 03:13:17;;;;;;;67.47;26.92;;;11.90;99.90;;;;;;5042302;28;20613;-69
2023/05/02 03:15:52;;;;;;;58.60;26.10;;;11.90;99.90;;;;;;5048439;28;20209;-68
2023/05/02 03:18:18;;;;;;;54.55;22.63;;;11.90;99.90;;;;;;5041639;28;20705;-69
2023/05/02 03:20:44;;;;;;;57.40;26.88;;;11.90;99.90;;;;;;5053747;28;20202;-69
2023/05/02 03:23:10;;;;;;;54.72;25.15;;;11.80;99.90;;;;;;5043305;28;20569;-69
2023/05/02 03:25:35;;;;;;;56.20;24.50;;;11.70;99.90;;;;;;5050574;28;20570;-68
2023/05/02 03:28:02;;;;;;;58.45;25.00;;;11.60;99.90;;;;;;5053964;28;20260;-69
2023/05/02 03:30:27;;;;;;;56.80;23.93;;;11.50;99.90;;;;;;5043191;28;20527;-69
2023/05/02 03:32:53;;;;;;;55.33;22.88;;;11.50;99.90;;;;;;5033759;28;20194;-69
2023/05/02 03:35:18;;;;;;;60.83;23.85;;;11.60;99.90;;;;;;5053731;28;20511;-69
2023/05/02 03:37:45;;;;;;;50.15;22.92;;;11.60;99.90;;;;;;5042928;28;20623;-69
2023/05/02 03:40:10;;;;;;;51.15;23.90;;;11.60;99.90;;;;;;5049630;28;20182;-69
2023/05/02 03:42:40;;;;;;;55.05;20.90;;;11.50;99.90;;;;;;5047419;28;20320;-67
2023/05/02 03:45:06;;;;;;;55.88;24.67;;;11.60;99.90;;;;;;5085294;28;20186;-67
2023/05/02 03:47:32;;;;;;;57.47;23.58;;;11.60;99.90;;;;;;5053264;28;20269;-67
2023/05/02 03:49:58;;;;;;;48.33;21.70;;;11.70;99.90;;;;;;5053600;28;20642;-68
2023/05/02 03:52:24;;;;;;;49.53;22.08;;;11.50;99.90;;;;;;5043815;28;20182;-68
2023/05/02 03:54:50;;;;;;;48.55;21.20;;;11.50;99.90;;;;;;5053550;28;20217;-68
2023/05/02 03:57:17;;;;;;;50.20;23.65;;;11.40;99.90;;;;;;5041175;28;20191;-68
2023/05/02 03:59:44;;;;;;;52.53;22.00;;;11.50;99.90;;;;;;5085308;28;20273;-71
2023/05/02 04:02:11;;;;;;;57.13;23.83;;;11.60;99.90;;;;;;5044958;28;20235;-68
2023/05/02 04:04:37;;;;;;;55.22;23.33;;;11.50;99.90;;;;;;5051246;28;20643;-68
2023/05/02 04:07:03;;;;;;;49.05;21.83;;;11.40;99.90;;;;;;5053384;28;20256;-68
2023/05/02 04:09:29;;;;;;;40.70;19.92;;;11.40;99.90;;;;;;5051741;28;20235;-68
2023/05/02 04:11:55;;;;;;;46.58;19.48;;;11.20;99.90;;;;;;5047485;28;20182;-68
2023/05/02 04:14:21;;;;;;;40.78;19.67;;;11.20;99.90;;;;;;5041632;28;20839;-68
2023/05/02 04:16:48;;;;;;;43.67;20.23;;;11.20;99.90;;;;;;5046489;28;20178;-68
2023/05/02 04:19:13;;;;;;;49.28;18.70;;;11.20;99.90;;;;;;5046753;28;20222;-68
2023/05/02 04:21:39;;;;;;;47.70;19.80;;;11.30;99.90;;;;;;5049775;28;20239;-68
2023/05/02 04:24:05;;;;;;;40.10;18.77;;;11.30;99.90;;;;;;5068067;28;20186;-71
2023/05/02 04:26:31;;;;;;;48.25;20.58;;;11.30;99.90;;;;;;5047654;28;20214;-68
2023/05/02 04:28:56;;;;;;;47.10;19.35;;;11.30;99.90;;;;;;5039315;28;20252;-69
2023/05/02 04:31:22;;;;;;;44.22;18.63;;;11.40;99.90;;;;;;5081099;28;20248;-69
2023/05/02 04:33:48;;;;;;;51.40;19.52;;;11.40;99.90;;;;;;5052783;28;20201;-68
2023/05/02 04:36:13;;;;;;;52.40;19.50;;;11.40;99.90;;;;;;5052436;28;20193;-69
2023/05/02 04:38:39;;;;;;;50.60;22.02;;;11.30;99.90;;;;;;5051595;28;20181;-68
2023/05/02 04:41:05;;;;;;;44.53;20.20;;;11.50;99.90;;;;;;5050240;28;20682;-68
2023/05/02 04:43:31;;;;;;;50.15;22.27;;;11.50;99.90;;;;;;5052541;28;20186;-69
2023/05/02 04:45:57;;;;;;;51.30;22.00;;;11.60;99.90;;;;;;5044818;28;20182;-68
2023/05/02 04:48:24;;;;;;;47.13;19.83;;;11.70;99.90;;;;;;5048498;28;20205;-68
2023/05/02 04:50:52;;;;;;;48.92;21.38;;;11.80;99.90;;;;;;5042295;28;20178;-68
2023/05/02 04:53:20;;;;;;;52.60;21.50;;;11.80;99.90;;;;;;5050441;28;20206;-68
2023/05/02 04:55:46;;;;;;;58.33;22.65;;;11.80;99.90;;;;;;5050887;28;20186;-68
2023/05/02 04:58:12;;;;;;;66.00;25.38;;;12.00;99.90;;;;;;5051886;28;20174;-69
2023/05/02 05:00:38;;;;;;;54.13;21.08;;;12.10;99.90;;;;;;5052288;28;20647;-68
2023/05/02 05:03:05;;;;;;;54.38;21.88;;;12.00;99.90;;;;;;5052223;28;20277;-68
2023/05/02 05:05:31;;;;;;;52.65;23.08;;;12.00;99.90;;;;;;5051998;28;20181;-69
2023/05/02 05:07:56;;;;;;;52.55;22.35;;;12.00;99.90;;;;;;5052435;28;20181;-70
2023/05/02 05:10:22;;;;;;;59.50;23.02;;;12.00;99.90;;;;;;5052504;28;20650;-69
2023/05/02 05:12:48;;;;;;;57.60;23.67;;;12.00;99.90;;;;;;5049925;28;20246;-68
2023/05/02 05:15:14;;;;;;;52.63;20.85;;;12.10;99.90;;;;;;5047732;28;20193;-69
2023/05/02 05:17:41;;;;;;;57.70;23.10;;;12.10;99.90;;;;;;5047613;28;20182;-69
2023/05/02 05:20:10;;;;;;;52.47;21.10;;;12.10;99.90;;;;;;5052347;28;20237;-67
2023/05/02 05:22:41;;;;;;;52.38;24.73;;;12.10;99.90;;;;;;5050110;28;20208;-66
2023/05/02 05:25:07;;;;;;;51.28;22.80;;;12.10;99.90;;;;;;5051114;28;20923;-67
2023/05/02 05:27:34;;;;;;;49.88;22.67;;;12.20;99.90;;;;;;5045297;28;20179;-68
2023/05/02 05:30:00;;;;;;;51.35;23.40;;;12.00;99.90;;;;;;5040841;28;20206;-67
2023/05/02 05:32:25;;;;;;;45.55;21.35;;;12.00;99.90;;;;;;5048662;28;20282;-66
2023/05/02 05:34:52;;;;;;;51.60;21.63;;;12.20;99.90;;;;;;5055566;28;20419;-67
2023/05/02 05:37:18;;;;;;;50.85;21.73;;;12.10;99.90;;;;;;5055985;28;20269;-64
2023/05/02 05:39:44;;;;;;;45.30;20.50;;;12.10;99.90;;;;;;5056472;28;20189;-64
2023/05/02 05:42:11;;;;;;;48.70;20.20;;;12.10;99.90;;;;;;5055891;28;20193;-64
2023/05/02 05:44:37;;;;;;;54.63;23.40;;;12.00;99.90;;;;;;5050279;28;20277;-66
2023/05/02 05:47:02;;;;;;;52.05;21.65;;;12.10;99.90;;;;;;5055644;28;20217;-66
2023/05/02 05:49:28;;;;;;;47.35;19.67;;;12.20;99.90;;;;;;5035744;28;20232;-66
2023/05/02 05:51:54;;;;;;;48.47;20.23;;;12.30;99.90;;;;;;5039784;28;20175;-66
2023/05/02 05:54:20;;;;;;;45.20;19.88;;;12.20;99.90;;;;;;5050397;28;20290;-65
2023/05/02 05:56:46;;;;;;;46.83;19.02;;;12.40;99.90;;;;;;5056010;28;20197;-65
2023/05/02 05:59:12;;;;;;;41.03;20.83;;;12.50;99.90;;;;;;5054861;28;20178;-69
2023/05/02 06:01:37;;;;;;;41.03;19.35;;;12.50;99.90;;;;;;5052181;28;20229;-69
2023/05/02 06:04:04;;;;;;;42.95;19.23;;;12.50;99.90;;;;;;5055566;28;20186;-67
2023/05/02 06:06:32;;;;;;;46.47;18.80;;;12.50;99.90;;;;;;5055585;28;20666;-67
2023/05/02 06:08:58;;;;;;;41.60;18.42;;;12.60;99.90;;;;;;5053432;28;20186;-67
2023/05/02 06:11:25;;;;;;;45.13;18.20;;;12.60;99.90;;;;;;5052237;28;20185;-68
2023/05/02 06:13:51;;;;;;;41.25;18.50;;;12.50;99.90;;;;;;5041255;28;20206;-66
2023/05/02 06:16:17;;;;;;;35.60;18.67;;;12.50;99.90;;;;;;5051679;28;20209;-69
2023/05/02 06:18:43;;;;;;;44.53;19.38;;;12.60;99.90;;;;;;5053903;28;20252;-70
2023/05/02 06:21:09;;;;;;;42.38;18.35;;;12.60;99.90;;;;;;5054698;28;20193;-71
2023/05/02 06:23:35;;;;;;;36.72;16.67;;;12.60;99.90;;;;;;5087093;28;20478;-71
2023/05/02 06:26:02;;;;;;;34.75;17.88;;;12.60;99.90;;;;;;5055118;28;20638;-70
2023/05/02 06:28:28;;;;;;;36.25;17.33;;;12.70;99.90;;;;;;5055279;28;20182;-70
2023/05/02 06:31:04;;;;;;;34.20;17.55;;;12.70;99.90;;;;;;5070478;28;20188;-70
2023/05/02 06:33:31;;;;;;;37.33;18.90;;;12.70;99.90;;;;;;5050603;28;20528;-68
2023/05/02 06:35:57;;;;;;;37.50;20.25;;;12.60;99.90;;;;;;5055007;28;20221;-68
2023/05/02 06:38:23;;;;;;;38.17;19.50;;;12.80;99.90;;;;;;5054383;28;20186;-69
2023/05/02 06:40:50;;;;;;;44.35;19.35;;;12.90;99.90;;;;;;5054941;28;20176;-68
2023/05/02 06:43:16;;;;;;;42.67;20.52;;;12.70;99.90;;;;;;5067242;28;20202;-68
2023/05/02 06:45:42;;;;;;;34.80;17.10;;;13.10;99.90;;;;;;5046528;28;20224;-69
2023/05/02 06:48:09;;;;;;;35.80;19.40;;;13.40;99.90;;;;;;5046843;28;20205;-67
2023/05/02 06:50:35;;;;;;;33.92;16.63;;;13.10;99.90;;;;;;5053000;28;20189;-67
2023/05/02 06:53:00;;;;;;;32.30;16.40;;;12.90;99.90;;;;;;5054810;28;20178;-69
2023/05/02 06:55:26;;;;;;;34.28;16.63;;;13.00;99.90;;;;;;5050153;28;20190;-69
2023/05/02 06:57:53;;;;;;;26.98;14.88;;;12.80;99.90;;;;;;5046291;28;20190;-68
2023/05/02 07:00:19;;;;;;;36.45;16.77;;;12.80;99.90;;;;;;5047397;28;20206;-68
2023/05/02 07:02:47;;;;;;;30.10;14.90;;;12.70;99.90;;;;;;5054411;28;20264;-69
2023/05/02 07:05:14;;;;;;;29.92;13.73;;;12.80;99.90;;;;;;5054622;28;20220;-70
2023/05/02 07:07:43;;;;;;;26.80;12.77;;;12.70;99.90;;;;;;5054527;28;20235;-69
2023/05/02 07:10:10;;;;;;;24.33;14.15;;;12.60;99.90;;;;;;5053221;28;20181;-69
2023/05/02 07:12:36;;;;;;;29.83;12.98;;;12.50;99.90;;;;;;5052840;28;20182;-69
2023/05/02 07:15:02;;;;;;;29.20;14.35;;;12.50;99.90;;;;;;5048151;28;20205;-68
2023/05/02 07:17:27;;;;;;;26.10;13.10;;;12.40;99.90;;;;;;5048225;28;20185;-69
2023/05/02 07:19:53;;;;;;;26.67;15.93;;;12.80;99.90;;;;;;5054091;28;20225;-68
2023/05/02 07:22:20;;;;;;;24.10;13.13;;;13.00;99.90;;;;;;5044786;28;20213;-69
2023/05/02 07:24:45;;;;;;;22.48;12.70;;;13.20;99.90;;;;;;5042352;28;20664;-67
2023/05/02 07:27:12;;;;;;;16.15;9.55;;;13.40;99.90;;;;;;5048647;28;20536;-68
2023/05/02 07:29:39;;;;;;;17.92;10.30;;;13.50;99.90;;;;;;5043373;28;20537;-68
2023/05/02 07:32:05;;;;;;;12.88;8.07;;;13.60;99.90;;;;;;5041480;28;20533;-68
2023/05/02 07:34:31;;;;;;;11.95;6.35;;;15.30;99.90;;;;;;5055139;28;20622;-69
2023/05/02 07:36:58;;;;;;;10.75;6.38;;;16.30;99.90;;;;;;5054038;28;20271;-68
2023/05/02 07:39:24;;;;;;;15.63;6.80;;;16.90;99.90;;;;;;5053228;28;20213;-68
2023/05/02 07:41:53;;;;;;;8.35;6.07;;;16.80;99.90;;;;;;5051987;28;20170;-67
2023/05/02 07:44:20;;;;;;;10.32;5.28;;;17.00;99.90;;;;;;5045070;28;20181;-67
2023/05/02 07:46:46;;;;;;;9.93;4.63;;;16.50;99.90;;;;;;5046608;28;20189;-68
2023/05/02 07:49:12;;;;;;;6.13;4.25;;;15.40;99.90;;;;;;5048842;28;20183;-68
2023/05/02 07:51:41;;;;;;;7.07;3.70;;;15.80;99.90;;;;;;5036228;28;20531;-68
2023/05/02 07:54:17;;;;;;;10.68;3.88;;;17.00;99.90;;;;;;5041340;28;20571;-69
2023/05/02 07:56:43;;;;;;;6.78;3.45;;;19.00;99.90;;;;;;5044657;28;20593;-68
2023/05/02 07:59:09;;;;;;;2.92;2.67;;;20.30;99.90;;;;;;5053446;28;20173;-68
2023/05/02 08:01:35;;;;;;;5.35;3.05;;;21.10;99.90;;;;;;5049985;28;20185;-68
2023/05/02 08:04:00;;;;;;;4.20;3.15;;;21.40;99.90;;;;;;5053729;28;20184;-70
2023/05/02 08:06:27;;;;;;;3.65;2.38;;;21.30;99.90;;;;;;5041761;28;20533;-67
2023/05/02 08:08:53;;;;;;;4.28;2.38;;;22.10;99.90;;;;;;5043957;28;20190;-67
2023/05/02 08:11:20;;;;;;;4.75;2.53;;;21.40;99.90;;;;;;5044384;28;20593;-68
2023/05/02 08:13:46;;;;;;;4.50;2.25;;;20.80;99.90;;;;;;5052385;28;20213;-67
2023/05/02 08:16:12;;;;;;;2.97;2.50;;;20.50;99.90;;;;;;5053403;28;20186;-68
2023/05/02 08:18:40;;;;;;;3.03;2.00;;;21.20;99.90;;;;;;5046843;28;20230;-68
2023/05/02 08:21:05;;;;;;;4.18;2.25;;;20.80;99.90;;;;;;5048792;28;20193;-66
2023/05/02 08:23:31;;;;;;;5.85;3.00;;;20.00;99.90;;;;;;5051413;28;20190;-68
2023/05/02 08:25:57;;;;;;;3.25;2.45;;;19.60;99.90;;;;;;5048187;28;20190;-68
2023/05/02 08:28:22;;;;;;;10.95;3.72;;;20.00;99.90;;;;;;5053255;28;20182;-67
2023/05/02 08:30:48;;;;;;;7.53;3.38;;;19.90;99.90;;;;;;5045670;28;20202;-68
2023/05/02 08:33:14;;;;;;;5.82;4.00;;;19.50;99.90;;;;;;5050218;28;20205;-68
2023/05/02 08:35:39;;;;;;;6.82;4.20;;;19.00;99.90;;;;;;5045415;28;20186;-67
2023/05/02 08:38:06;;;;;;;4.55;4.15;;;18.70;99.90;;;;;;5051905;28;20686;-67
2023/05/02 08:40:35;;;;;;;5.68;4.60;;;18.10;99.90;;;;;;5051027;28;20528;-67
2023/05/02 08:43:03;;;;;;;9.02;6.22;;;17.60;99.90;;;;;;5042584;28;20209;-72
2023/05/02 08:45:36;;;;;;;7.05;6.13;;;18.00;99.90;;;;;;5048224;28;20191;-68
2023/05/02 08:48:06;;;;;;;9.35;5.90;;;18.00;99.90;;;;;;5045346;28;20594;-71
2023/05/02 08:50:36;;;;;;;7.43;6.60;;;18.00;99.90;;;;;;5051456;28;20181;-68
2023/05/02 08:53:07;;;;;;;7.25;6.38;;;17.90;99.90;;;;;;5037594;28;20590;-68
2023/05/02 08:55:41;;;;;;;7.35;5.63;;;18.50;99.90;;;;;;5042263;28;20550;-69
2023/05/02 08:58:08;;;;;;;9.63;8.00;;;19.30;99.90;;;;;;5046082;28;20175;-67
2023/05/02 09:00:41;;;;;;;10.80;7.15;;;19.40;99.90;;;;;;5037475;28;20186;-68
2023/05/02 09:03:25;;;;;;;15.02;7.78;;;19.20;99.90;;;;;;5042739;28;20178;-68
2023/05/02 09:06:12;;;;;;;7.03;6.18;;;19.20;99.90;;;;;;5048866;28;20514;-68
2023/05/02 09:08:41;;;;;;;8.77;6.30;;;19.10;99.90;;;;;;5052218;28;20260;-69
2023/05/02 09:11:09;;;;;;;7.78;5.47;;;18.70;99.90;;;;;;5052566;28;20528;-69
2023/05/02 09:13:40;;;;;;;7.43;5.97;;;18.50;99.90;;;;;;5051917;28;20646;-68
2023/05/02 09:16:14;;;;;;;9.95;8.35;;;18.40;99.90;;;;;;5043454;28;20216;-67
2023/05/02 09:18:45;;;;;;;11.20;7.13;;;18.10;99.90;;;;;;5052496;28;20224;-68
2023/05/02 09:21:20;;;;;;;9.15;6.50;;;18.00;99.90;;;;;;5038591;28;20175;-67
2023/05/02 09:23:57;;;;;;;10.10;6.68;;;17.80;99.90;;;;;;5049983;28;20191;-68
2023/05/02 09:26:28;;;;;;;7.60;5.80;;;18.00;99.90;;;;;;5052054;28;20641;-68
2023/05/02 09:28:54;;;;;;;7.63;5.97;;;18.00;99.90;;;;;;5052599;28;20174;-68
2023/05/02 09:31:30;;;;;;;8.27;6.18;;;17.80;99.90;;;;;;5042970;28;20536;-67
2023/05/02 09:33:56;;;;;;;11.63;7.43;;;18.00;99.90;;;;;;5048148;28;20197;-67
2023/05/02 09:36:22;;;;;;;7.38;6.40;;;18.30;99.90;;;;;;5048614;28;20190;-68
2023/05/02 09:38:49;;;;;;;7.40;6.72;;;17.60;99.90;;;;;;5041185;28;20166;-69
2023/05/02 09:41:16;;;;;;;7.45;6.15;;;17.60;99.90;;;;;;5043924;28;20185;-68
2023/05/02 09:43:42;;;;;;;7.10;6.40;;;17.80;99.90;;;;;;5051817;28;20204;-67
2023/05/02 09:46:10;;;;;;;6.32;5.70;;;18.20;99.90;;;;;;5051302;28;20580;-67
2023/05/02 09:48:50;;;;;;;16.73;6.50;;;18.20;99.90;;;;;;5052598;28;20178;-68
2023/05/02 09:51:17;;;;;;;6.57;5.65;;;18.00;99.90;;;;;;5040206;28;20197;-68
2023/05/02 09:53:44;;;;;;;8.07;4.88;;;17.80;99.90;;;;;;5052385;28;20335;-70
2023/05/02 09:56:10;;;;;;;4.93;4.45;;;17.60;99.90;;;;;;5051668;28;20276;-68
2023/05/02 09:58:36;;;;;;;5.10;4.55;;;17.70;99.90;;;;;;5048451;28;20182;-68
2023/05/02 10:01:01;;;;;;;5.97;5.45;;;17.70;99.90;;;;;;5043073;28;20523;-70
2023/05/02 10:03:28;;;;;;;4.85;4.45;;;17.60;99.90;;;;;;5043222;28;20375;-68
2023/05/02 10:05:55;;;;;;;6.38;5.47;;;17.50;99.90;;;;;;5038374;28;20179;-67
2023/05/02 10:08:24;;;;;;;8.38;5.25;;;16.70;99.90;;;;;;5041427;28;20477;-68
2023/05/02 10:10:57;;;;;;;8.38;5.45;;;16.60;99.90;;;;;;5047545;28;20204;-69
2023/05/02 10:13:31;;;;;;;6.45;5.85;;;17.00;99.90;;;;;;5051796;28;20293;-68
2023/05/02 10:16:00;;;;;;;7.97;5.15;;;17.50;99.90;;;;;;5043140;28;20277;-70
2023/05/02 10:18:51;;;;;;;7.40;5.22;;;17.70;99.90;;;;;;5047349;28;20233;-68
2023/05/02 10:21:28;;;;;;;6.03;5.43;;;17.60;99.90;;;;;;5051923;28;20218;-73
2023/05/02 10:23:54;;;;;;;5.40;4.90;;;17.90;99.90;;;;;;5055881;28;20174;-70
2023/05/02 10:26:22;;;;;;;5.85;5.32;;;17.90;99.90;;;;;;5055104;28;21274;-70
2023/05/02 10:28:48;;;;;;;7.22;6.18;;;17.40;99.90;;;;;;5055307;28;20174;-70
2023/05/02 10:31:15;;;;;;;7.00;6.18;;;17.40;99.90;;;;;;5053511;28;20220;-69
2023/05/02 10:33:40;;;;;;;7.00;6.40;;;17.10;99.90;;;;;;5045217;28;20209;-69
2023/05/02 10:36:14;;;;;;;7.50;6.60;;;17.40;99.90;;;;;;5051085;28;20204;-69
2023/05/02 10:38:41;;;;;;;6.55;5.90;;;17.40;99.90;;;;;;5039202;28;20166;-70
2023/05/02 10:41:14;;;;;;;7.97;6.07;;;17.90;99.90;;;;;;5047667;28;20178;-69
2023/05/02 10:43:44;;;;;;;7.80;6.55;;;18.20;99.90;;;;;;5054927;28;20251;-69
2023/05/02 10:46:40;;;;;;;8.60;6.68;;;18.30;99.90;;;;;;5054967;28;20174;-71
2023/05/02 10:49:12;;;;;;;9.43;7.22;;;17.60;99.90;;;;;;5050169;28;20624;-73
2023/05/02 10:51:40;;;;;;;6.75;6.25;;;17.40;99.90;;;;;;5040473;28;20206;-70
2023/05/02 10:54:18;;;;;;;8.70;7.65;;;17.60;99.90;;;;;;5052827;28;20251;-70
2023/05/02 10:57:07;;;;;;;7.72;7.03;;;17.70;99.90;;;;;;5041868;28;20179;-69
2023/05/02 10:59:41;;;;;;;10.73;8.35;;;17.90;99.90;;;;;;5056730;28;20228;-69
2023/05/02 11:02:24;;;;;;;8.00;6.50;;;17.90;99.90;;;;;;5047386;28;20205;-70
2023/05/02 11:05:05;;;;;;;10.27;7.18;;;17.90;99.90;;;;;;5042640;28;20547;-68
2023/05/02 11:07:34;;;;;;;8.80;7.82;;;17.60;99.90;;;;;;5055022;28;20212;-70
2023/05/02 11:10:21;;;;;;;9.05;6.82;;;18.00;99.90;;;;;;5054576;28;20185;-69
2023/05/02 11:12:48;;;;;;;12.02;7.57;;;17.80;99.90;;;;;;5050206;28;20181;-67
2023/05/02 11:15:39;;;;;;;9.70;6.63;;;17.80;99.90;;;;;;5054413;28;20219;-69
2023/05/02 11:18:13;;;;;;;7.28;6.68;;;18.00;99.90;;;;;;5043409;28;20194;-66
2023/05/02 11:20:43;;;;;;;7.70;6.45;;;17.60;99.90;;;;;;5053326;28;20300;-69
2023/05/02 11:23:15;;;;;;;9.52;7.43;;;17.20;99.90;;;;;;5043080;28;20643;-68
2023/05/02 11:25:49;;;;;;;7.72;7.00;;;17.00;99.90;;;;;;5046270;28;20581;-69
2023/05/02 11:28:39;;;;;;;9.63;6.57;;;16.60;99.90;;;;;;5050507;28;20186;-69
2023/05/02 11:31:07;;;;;;;7.70;6.70;;;16.90;99.90;;;;;;5048287;28;20569;-68
2023/05/02 11:33:33;;;;;;;7.68;6.60;;;17.40;99.90;;;;;;5051156;28;20222;-67
2023/05/02 11:35:59;;;;;;;12.18;6.70;;;17.70;99.90;;;;;;5046270;28;20542;-67
2023/05/02 11:38:33;;;;;;;10.07;6.82;;;17.70;99.90;;;;;;5053054;28;20270;-69
2023/05/02 11:41:01;;;;;;;7.90;6.03;;;17.60;99.90;;;;;;5051870;28;20196;-69
2023/05/02 11:43:28;;;;;;;6.03;5.53;;;17.80;99.90;;;;;;5042755;28;20236;-68
2023/05/02 11:45:54;;;;;;;10.82;5.43;;;17.80;99.90;;;;;;5044785;28;20170;-67
2023/05/02 11:48:21;;;;;;;5.13;4.60;;;18.00;99.90;;;;;;5046644;28;20529;-68
2023/05/02 11:50:51;;;;;;;9.70;5.22;;;18.50;99.90;;;;;;5042243;28;20181;-69
2023/05/02 11:53:22;;;;;;;6.47;4.65;;;18.60;99.90;;;;;;5054279;28;20190;-69
2023/05/02 11:55:59;;;;;;;6.13;5.53;;;18.90;99.90;;;;;;5051660;28;20224;-68
2023/05/02 11:58:31;;;;;;;6.78;5.10;;;18.70;99.90;;;;;;5044501;28;20627;-68
2023/05/02 12:00:58;;;;;;;10.05;5.78;;;18.20;99.90;;;;;;5052050;28;20186;-68
2023/05/02 12:03:26;;;;;;;5.10;4.60;;;18.10;99.90;;;;;;5046343;28;20620;-68
2023/05/02 12:05:52;;;;;;;7.07;5.13;;;18.10;99.90;;;;;;5067266;28;20178;-69
2023/05/02 12:08:22;;;;;;;5.72;4.70;;;17.80;99.90;;;;;;5045512;28;20189;-68
2023/05/02 12:10:50;;;;;;;7.07;5.68;;;17.50;99.90;;;;;;5044432;28;20220;-70
2023/05/02 12:13:16;;;;;;;6.25;5.65;;;17.30;99.90;;;;;;5047843;28;20182;-69
2023/05/02 12:15:42;;;;;;;9.52;5.18;;;17.20;99.90;;;;;;5047929;28;20198;-67
2023/05/02 12:18:08;;;;;;;14.18;6.30;;;17.20;99.90;;;;;;5060664;28;20503;-68
2023/05/02 12:20:35;;;;;;;6.55;5.20;;;17.30;99.90;;;;;;5053689;28;20641;-67
2023/05/02 12:23:03;;;;;;;5.80;5.05;;;17.40;99.90;;;;;;5047372;28;20262;-67
2023/05/02 12:25:28;;;;;;;4.75;4.45;;;17.60;99.90;;;;;;5046474;28;20205;-68
2023/05/02 12:28:01;;;;;;;6.88;4.38;;;17.60;99.90;;;;;;5046837;28;20179;-68
2023/05/02 12:30:31;;;;;;;7.15;5.65;;;17.30;99.90;;;;;;5050602;28;20197;-68
2023/05/02 12:33:00;;;;;;;7.68;6.68;;;17.60;99.90;;;;;;5041052;28;20182;-68
2023/05/02 12:35:27;;;;;;;9.68;5.90;;;17.70;99.90;;;;;;5051909;28;20194;-70
2023/05/02 12:37:53;;;;;;;9.75;5.30;;;17.90;99.90;;;;;;5051405;28;20196;-69
2023/05/02 12:40:19;;;;;;;7.90;6.35;;;17.80;99.90;;;;;;5082833;28;20186;-68